sensor_id;sensor_type;location;lat;lon;timestamp;P1;durP1;ratioP1;P2;durP2;ratioP2
18893;SDS011;9579;49.488;8.226;2024-03-25T00:02:37;3.73;;;3.20;;
18893;SDS011;9579;49.488;8.226;2024-03-25T00:05:26;4.53;;;3.50;;
18893;SDS011;9579;49.488;8.226;2024-03-25T00:08:15;4.93;;;3.63;;
18893;SDS011;9579;49.488;8.226;2024-03-25T00:11:02;4.27;;;3.53;;
18893;SDS011;9579;49.488;8.226;2024-03-25T00:13:50;4.13;;;3.30;;
18893;SDS011;9579;49.488;8.226;2024-03-25T00:16:36;4.37;;;3.70;;
18893;SDS011;9579;49.488;8.226;2024-03-25T00:19:24;5.03;;;3.47;;
18893;SDS011;9579;49.488;8.226;2024-03-25T00:22:15;4.43;;;3.43;;
18893;SDS011;9579;49.488;8.226;2024-03-25T00:25:23;4.70;;;3.53;;
18893;SDS011;9579;49.488;8.226;2024-03-25T00:28:13;4.03;;;3.50;;
18893;SDS011;9579;49.488;8.226;2024-03-25T00:31:03;5.30;;;3.17;;
18893;SDS011;9579;49.488;8.226;2024-03-25T00:33:53;4.43;;;3.53;;
18893;SDS011;9579;49.488;8.226;2024-03-25T00:36:44;4.07;;;3.40;;
18893;SDS011;9579;49.488;8.226;2024-03-25T00:39:30;5.70;;;3.60;;
18893;SDS011;9579;49.488;8.226;2024-03-25T00:42:21;5.77;;;3.70;;
18893;SDS011;9579;49.488;8.226;2024-03-25T00:45:12;4.40;;;3.47;;
18893;SDS011;9579;49.488;8.226;2024-03-25T00:48:10;4.10;;;3.50;;
18893;SDS011;9579;49.488;8.226;2024-03-25T00:50:59;5.33;;;3.77;;
18893;SDS011;9579;49.488;8.226;2024-03-25T00:53:46;3.97;;;3.43;;
18893;SDS011;9579;49.488;8.226;2024-03-25T00:56:36;4.27;;;3.40;;
18893;SDS011;9579;49.488;8.226;2024-03-25T00:59:23;4.67;;;3.33;;
18893;SDS011;9579;49.488;8.226;2024-03-25T01:02:11;4.67;;;3.63;;
18893;SDS011;9579;49.488;8.226;2024-03-25T01:04:59;5.20;;;3.57;;
18893;SDS011;9579;49.488;8.226;2024-03-25T01:07:46;4.17;;;3.30;;
18893;SDS011;9579;49.488;8.226;2024-03-25T01:10:34;5.20;;;3.83;;
18893;SDS011;9579;49.488;8.226;2024-03-25T01:13:21;4.33;;;3.57;;
18893;SDS011;9579;49.488;8.226;2024-03-25T01:16:09;5.03;;;3.80;;
18893;SDS011;9579;49.488;8.226;2024-03-25T01:18:57;4.00;;;3.50;;
18893;SDS011;9579;49.488;8.226;2024-03-25T01:21:44;4.30;;;3.67;;
18893;SDS011;9579;49.488;8.226;2024-03-25T01:24:32;4.63;;;3.60;;
18893;SDS011;9579;49.488;8.226;2024-03-25T01:27:21;4.33;;;3.60;;
18893;SDS011;9579;49.488;8.226;2024-03-25T01:30:09;3.77;;;3.43;;
18893;SDS011;9579;49.488;8.226;2024-03-25T01:32:57;5.10;;;4.00;;
18893;SDS011;9579;49.488;8.226;2024-03-25T01:35:46;4.23;;;3.60;;
18893;SDS011;9579;49.488;8.226;2024-03-25T01:38:32;4.23;;;3.50;;
18893;SDS011;9579;49.488;8.226;2024-03-25T01:41:20;5.63;;;3.77;;
18893;SDS011;9579;49.488;8.226;2024-03-25T01:44:08;4.27;;;3.67;;
18893;SDS011;9579;49.488;8.226;2024-03-25T01:46:56;4.03;;;3.63;;
18893;SDS011;9579;49.488;8.226;2024-03-25T01:49:42;6.67;;;4.00;;
18893;SDS011;9579;49.488;8.226;2024-03-25T01:52:32;5.63;;;4.23;;
18893;SDS011;9579;49.488;8.226;2024-03-25T01:55:20;5.00;;;4.10;;
18893;SDS011;9579;49.488;8.226;2024-03-25T01:58:09;4.60;;;3.80;;
18893;SDS011;9579;49.488;8.226;2024-03-25T02:00:56;5.73;;;3.80;;
18893;SDS011;9579;49.488;8.226;2024-03-25T02:03:46;3.87;;;3.53;;
18893;SDS011;9579;49.488;8.226;2024-03-25T02:06:32;6.10;;;3.90;;
18893;SDS011;9579;49.488;8.226;2024-03-25T02:09:22;4.83;;;3.80;;
18893;SDS011;9579;49.488;8.226;2024-03-25T02:12:08;4.63;;;3.87;;
18893;SDS011;9579;49.488;8.226;2024-03-25T02:14:56;6.00;;;3.83;;
18893;SDS011;9579;49.488;8.226;2024-03-25T02:17:42;5.83;;;4.37;;
18893;SDS011;9579;49.488;8.226;2024-03-25T02:20:30;5.57;;;4.07;;
18893;SDS011;9579;49.488;8.226;2024-03-25T02:23:16;5.50;;;4.20;;
18893;SDS011;9579;49.488;8.226;2024-03-25T02:26:06;5.37;;;4.00;;
18893;SDS011;9579;49.488;8.226;2024-03-25T02:28:52;5.27;;;4.10;;
18893;SDS011;9579;49.488;8.226;2024-03-25T02:31:40;5.30;;;3.83;;
18893;SDS011;9579;49.488;8.226;2024-03-25T02:34:26;5.03;;;4.13;;
18893;SDS011;9579;49.488;8.226;2024-03-25T02:37:13;4.90;;;4.00;;
18893;SDS011;9579;49.488;8.226;2024-03-25T02:40:00;4.93;;;4.07;;
18893;SDS011;9579;49.488;8.226;2024-03-25T02:42:51;5.93;;;4.17;;
18893;SDS011;9579;49.488;8.226;2024-03-25T02:45:38;5.60;;;4.17;;
18893;SDS011;9579;49.488;8.226;2024-03-25T02:48:25;5.07;;;4.27;;
18893;SDS011;9579;49.488;8.226;2024-03-25T02:51:11;5.97;;;4.10;;
18893;SDS011;9579;49.488;8.226;2024-03-25T02:53:58;4.47;;;4.07;;
18893;SDS011;9579;49.488;8.226;2024-03-25T02:56:44;5.47;;;4.30;;
18893;SDS011;9579;49.488;8.226;2024-03-25T02:59:32;5.93;;;4.70;;
18893;SDS011;9579;49.488;8.226;2024-03-25T03:02:18;6.17;;;4.50;;
18893;SDS011;9579;49.488;8.226;2024-03-25T03:05:07;6.00;;;4.53;;
18893;SDS011;9579;49.488;8.226;2024-03-25T03:07:53;5.50;;;4.47;;
18893;SDS011;9579;49.488;8.226;2024-03-25T03:10:40;6.07;;;4.63;;
18893;SDS011;9579;49.488;8.226;2024-03-25T03:13:26;4.63;;;4.23;;
18893;SDS011;9579;49.488;8.226;2024-03-25T03:16:15;5.30;;;4.80;;
18893;SDS011;9579;49.488;8.226;2024-03-25T03:19:01;5.37;;;4.70;;
18893;SDS011;9579;49.488;8.226;2024-03-25T03:21:51;4.70;;;4.17;;
18893;SDS011;9579;49.488;8.226;2024-03-25T03:24:38;5.47;;;4.67;;
18893;SDS011;9579;49.488;8.226;2024-03-25T03:27:25;4.53;;;4.13;;
18893;SDS011;9579;49.488;8.226;2024-03-25T03:30:12;5.57;;;5.00;;
18893;SDS011;9579;49.488;8.226;2024-03-25T03:33:00;5.30;;;4.70;;
18893;SDS011;9579;49.488;8.226;2024-03-25T03:35:47;7.63;;;4.83;;
18893;SDS011;9579;49.488;8.226;2024-03-25T03:38:33;5.57;;;4.50;;
18893;SDS011;9579;49.488;8.226;2024-03-25T03:41:21;5.50;;;4.60;;
18893;SDS011;9579;49.488;8.226;2024-03-25T03:44:07;4.40;;;4.00;;
18893;SDS011;9579;49.488;8.226;2024-03-25T03:46:54;5.67;;;4.90;;
18893;SDS011;9579;49.488;8.226;2024-03-25T03:49:42;5.43;;;4.83;;
18893;SDS011;9579;49.488;8.226;2024-03-25T03:52:29;5.23;;;4.27;;
18893;SDS011;9579;49.488;8.226;2024-03-25T03:55:15;5.00;;;4.50;;
18893;SDS011;9579;49.488;8.226;2024-03-25T03:58:02;4.70;;;4.20;;
18893;SDS011;9579;49.488;8.226;2024-03-25T04:00:49;6.13;;;4.60;;
18893;SDS011;9579;49.488;8.226;2024-03-25T04:03:36;6.17;;;4.80;;
18893;SDS011;9579;49.488;8.226;2024-03-25T04:06:23;5.07;;;4.40;;
18893;SDS011;9579;49.488;8.226;2024-03-25T04:09:12;5.70;;;4.67;;
18893;SDS011;9579;49.488;8.226;2024-03-25T04:11:58;5.37;;;4.57;;
18893;SDS011;9579;49.488;8.226;2024-03-25T04:14:46;6.37;;;4.57;;
18893;SDS011;9579;49.488;8.226;2024-03-25T04:17:32;5.47;;;4.70;;
18893;SDS011;9579;49.488;8.226;2024-03-25T04:20:19;5.53;;;4.60;;
18893;SDS011;9579;49.488;8.226;2024-03-25T04:23:07;6.03;;;4.50;;
18893;SDS011;9579;49.488;8.226;2024-03-25T04:25:54;5.97;;;4.53;;
18893;SDS011;9579;49.488;8.226;2024-03-25T04:28:40;6.60;;;4.90;;
18893;SDS011;9579;49.488;8.226;2024-03-25T04:31:27;5.93;;;4.67;;
18893;SDS011;9579;49.488;8.226;2024-03-25T04:34:13;6.03;;;4.97;;
18893;SDS011;9579;49.488;8.226;2024-03-25T04:37:02;5.63;;;4.70;;
18893;SDS011;9579;49.488;8.226;2024-03-25T04:39:49;5.07;;;4.33;;
18893;SDS011;9579;49.488;8.226;2024-03-25T04:42:35;7.03;;;4.47;;
18893;SDS011;9579;49.488;8.226;2024-03-25T04:45:22;4.87;;;4.20;;
18893;SDS011;9579;49.488;8.226;2024-03-25T04:48:08;5.97;;;4.50;;
18893;SDS011;9579;49.488;8.226;2024-03-25T04:50:54;7.33;;;4.27;;
18893;SDS011;9579;49.488;8.226;2024-03-25T04:53:41;5.40;;;4.63;;
18893;SDS011;9579;49.488;8.226;2024-03-25T04:56:28;7.10;;;4.43;;
18893;SDS011;9579;49.488;8.226;2024-03-25T04:59:14;7.47;;;4.60;;
18893;SDS011;9579;49.488;8.226;2024-03-25T05:02:00;5.23;;;4.03;;
18893;SDS011;9579;49.488;8.226;2024-03-25T05:04:47;6.23;;;4.90;;
18893;SDS011;9579;49.488;8.226;2024-03-25T05:07:33;5.67;;;4.60;;
18893;SDS011;9579;49.488;8.226;2024-03-25T05:10:19;5.63;;;4.90;;
18893;SDS011;9579;49.488;8.226;2024-03-25T05:13:07;4.90;;;4.20;;
18893;SDS011;9579;49.488;8.226;2024-03-25T05:15:53;6.40;;;4.87;;
18893;SDS011;9579;49.488;8.226;2024-03-25T05:18:39;5.67;;;4.90;;
18893;SDS011;9579;49.488;8.226;2024-03-25T05:21:25;5.27;;;4.67;;
18893;SDS011;9579;49.488;8.226;2024-03-25T05:24:11;5.63;;;4.93;;
18893;SDS011;9579;49.488;8.226;2024-03-25T05:26:57;8.10;;;4.57;;
18893;SDS011;9579;49.488;8.226;2024-03-25T05:29:45;5.47;;;4.30;;
18893;SDS011;9579;49.488;8.226;2024-03-25T05:32:31;5.17;;;4.00;;
18893;SDS011;9579;49.488;8.226;2024-03-25T05:35:17;5.07;;;4.30;;
18893;SDS011;9579;49.488;8.226;2024-03-25T05:38:03;6.70;;;5.00;;
18893;SDS011;9579;49.488;8.226;2024-03-25T05:40:50;6.07;;;5.00;;
18893;SDS011;9579;49.488;8.226;2024-03-25T05:43:36;11.30;;;5.90;;
18893;SDS011;9579;49.488;8.226;2024-03-25T05:46:23;5.90;;;4.67;;
18893;SDS011;9579;49.488;8.226;2024-03-25T05:49:10;7.53;;;5.10;;
18893;SDS011;9579;49.488;8.226;2024-03-25T05:51:56;8.10;;;6.00;;
18893;SDS011;9579;49.488;8.226;2024-03-25T05:54:42;6.43;;;4.80;;
18893;SDS011;9579;49.488;8.226;2024-03-25T05:57:28;6.13;;;4.83;;
18893;SDS011;9579;49.488;8.226;2024-03-25T06:00:14;10.17;;;5.23;;
18893;SDS011;9579;49.488;8.226;2024-03-25T06:03:02;8.33;;;5.60;;
18893;SDS011;9579;49.488;8.226;2024-03-25T06:05:49;6.47;;;4.93;;
18893;SDS011;9579;49.488;8.226;2024-03-25T06:08:35;7.10;;;4.77;;
18893;SDS011;9579;49.488;8.226;2024-03-25T06:11:21;5.90;;;4.93;;
18893;SDS011;9579;49.488;8.226;2024-03-25T06:16:43;5.23;;;4.67;;
18893;SDS011;9579;49.488;8.226;2024-03-25T06:19:30;5.53;;;4.97;;
18893;SDS011;9579;49.488;8.226;2024-03-25T06:22:16;6.83;;;5.63;;
18893;SDS011;9579;49.488;8.226;2024-03-25T06:25:03;6.33;;;5.53;;
18893;SDS011;9579;49.488;8.226;2024-03-25T06:27:51;5.97;;;5.13;;
18893;SDS011;9579;49.488;8.226;2024-03-25T06:30:37;5.83;;;5.23;;
18893;SDS011;9579;49.488;8.226;2024-03-25T06:33:41;6.53;;;5.57;;
18893;SDS011;9579;49.488;8.226;2024-03-25T06:36:47;6.63;;;5.47;;
18893;SDS011;9579;49.488;8.226;2024-03-25T06:39:34;5.13;;;4.63;;
18893;SDS011;9579;49.488;8.226;2024-03-25T06:42:20;6.43;;;5.30;;
18893;SDS011;9579;49.488;8.226;2024-03-25T06:45:06;6.07;;;5.47;;
18893;SDS011;9579;49.488;8.226;2024-03-25T06:47:52;5.30;;;4.83;;
18893;SDS011;9579;49.488;8.226;2024-03-25T06:50:39;6.20;;;5.60;;
18893;SDS011;9579;49.488;8.226;2024-03-25T06:53:26;6.60;;;5.50;;
18893;SDS011;9579;49.488;8.226;2024-03-25T06:56:13;5.80;;;5.20;;
18893;SDS011;9579;49.488;8.226;2024-03-25T06:58:59;5.87;;;5.23;;
18893;SDS011;9579;49.488;8.226;2024-03-25T07:01:46;5.17;;;4.67;;
18893;SDS011;9579;49.488;8.226;2024-03-25T07:04:32;5.43;;;4.90;;
18893;SDS011;9579;49.488;8.226;2024-03-25T07:07:19;6.20;;;4.83;;
18893;SDS011;9579;49.488;8.226;2024-03-25T07:10:07;5.73;;;5.03;;
18893;SDS011;9579;49.488;8.226;2024-03-25T07:12:54;6.87;;;5.07;;
18893;SDS011;9579;49.488;8.226;2024-03-25T07:15:40;5.93;;;5.07;;
18893;SDS011;9579;49.488;8.226;2024-03-25T07:18:28;6.43;;;5.53;;
18893;SDS011;9579;49.488;8.226;2024-03-25T07:21:14;7.57;;;5.00;;
18893;SDS011;9579;49.488;8.226;2024-03-25T07:24:01;7.63;;;5.00;;
18893;SDS011;9579;49.488;8.226;2024-03-25T07:26:48;7.07;;;5.87;;
18893;SDS011;9579;49.488;8.226;2024-03-25T07:29:34;5.83;;;5.23;;
18893;SDS011;9579;49.488;8.226;2024-03-25T07:32:21;5.87;;;4.87;;
18893;SDS011;9579;49.488;8.226;2024-03-25T07:35:07;5.73;;;4.93;;
18893;SDS011;9579;49.488;8.226;2024-03-25T07:37:54;5.80;;;5.30;;
18893;SDS011;9579;49.488;8.226;2024-03-25T07:40:40;7.00;;;5.30;;
18893;SDS011;9579;49.488;8.226;2024-03-25T07:43:27;6.60;;;5.80;;
18893;SDS011;9579;49.488;8.226;2024-03-25T07:46:13;7.00;;;5.57;;
18893;SDS011;9579;49.488;8.226;2024-03-25T07:48:59;5.53;;;5.03;;
18893;SDS011;9579;49.488;8.226;2024-03-25T07:51:45;5.67;;;5.10;;
18893;SDS011;9579;49.488;8.226;2024-03-25T07:54:32;5.33;;;4.83;;
18893;SDS011;9579;49.488;8.226;2024-03-25T07:57:18;5.20;;;4.70;;
18893;SDS011;9579;49.488;8.226;2024-03-25T08:00:07;4.93;;;4.43;;
18893;SDS011;9579;49.488;8.226;2024-03-25T08:02:53;4.45;;;4.05;;
18893;SDS011;9579;49.488;8.226;2024-03-25T08:05:40;5.85;;;4.88;;
18893;SDS011;9579;49.488;8.226;2024-03-25T08:08:26;5.65;;;4.85;;
18893;SDS011;9579;49.488;8.226;2024-03-25T08:11:12;5.45;;;4.95;;
18893;SDS011;9579;49.488;8.226;2024-03-25T08:13:58;6.72;;;5.43;;
18893;SDS011;9579;49.488;8.226;2024-03-25T08:16:46;6.43;;;5.50;;
18893;SDS011;9579;49.488;8.226;2024-03-25T08:19:32;6.15;;;5.40;;
18893;SDS011;9579;49.488;8.226;2024-03-25T08:22:18;5.45;;;4.82;;
18893;SDS011;9579;49.488;8.226;2024-03-25T08:25:04;5.72;;;5.15;;
18893;SDS011;9579;49.488;8.226;2024-03-25T08:27:51;5.70;;;5.10;;
18893;SDS011;9579;49.488;8.226;2024-03-25T08:30:37;5.20;;;4.70;;
18893;SDS011;9579;49.488;8.226;2024-03-25T08:33:24;5.35;;;4.85;;
18893;SDS011;9579;49.488;8.226;2024-03-25T08:36:11;5.95;;;3.97;;
18893;SDS011;9579;49.488;8.226;2024-03-25T08:38:57;5.03;;;3.85;;
18893;SDS011;9579;49.488;8.226;2024-03-25T08:41:43;4.75;;;4.22;;
18893;SDS011;9579;49.488;8.226;2024-03-25T08:44:29;5.13;;;4.40;;
18893;SDS011;9579;49.488;8.226;2024-03-25T08:47:15;5.80;;;4.30;;
18893;SDS011;9579;49.488;8.226;2024-03-25T08:50:03;5.20;;;4.55;;
18893;SDS011;9579;49.488;8.226;2024-03-25T08:52:50;5.10;;;4.32;;
18893;SDS011;9579;49.488;8.226;2024-03-25T08:55:36;7.07;;;4.95;;
18893;SDS011;9579;49.488;8.226;2024-03-25T08:58:22;7.00;;;4.75;;
18893;SDS011;9579;49.488;8.226;2024-03-25T09:01:08;5.00;;;3.97;;
18893;SDS011;9579;49.488;8.226;2024-03-25T09:03:54;4.80;;;4.40;;
18893;SDS011;9579;49.488;8.226;2024-03-25T09:06:42;5.50;;;4.22;;
18893;SDS011;9579;49.488;8.226;2024-03-25T09:09:28;4.30;;;3.53;;
18893;SDS011;9579;49.488;8.226;2024-03-25T09:12:29;3.25;;;2.60;;
18893;SDS011;9579;49.488;8.226;2024-03-25T09:15:15;3.05;;;2.38;;
18893;SDS011;9579;49.488;8.226;2024-03-25T09:18:02;5.15;;;2.67;;
18893;SDS011;9579;49.488;8.226;2024-03-25T09:20:48;3.80;;;2.63;;
18893;SDS011;9579;49.488;8.226;2024-03-25T09:23:35;4.03;;;3.00;;
18893;SDS011;9579;49.488;8.226;2024-03-25T09:26:22;4.03;;;2.85;;
18893;SDS011;9579;49.488;8.226;2024-03-25T09:29:08;4.55;;;2.92;;
18893;SDS011;9579;49.488;8.226;2024-03-25T09:31:54;4.32;;;2.72;;
18893;SDS011;9579;49.488;8.226;2024-03-25T09:34:40;4.65;;;2.67;;
18893;SDS011;9579;49.488;8.226;2024-03-25T09:37:26;4.47;;;3.20;;
18893;SDS011;9579;49.488;8.226;2024-03-25T09:40:14;3.33;;;2.60;;
18893;SDS011;9579;49.488;8.226;2024-03-25T09:43:04;5.15;;;2.47;;
18893;SDS011;9579;49.488;8.226;2024-03-25T09:45:58;3.97;;;2.75;;
18893;SDS011;9579;49.488;8.226;2024-03-25T09:48:45;4.38;;;3.13;;
18893;SDS011;9579;49.488;8.226;2024-03-25T09:51:32;2.75;;;2.50;;
18893;SDS011;9579;49.488;8.226;2024-03-25T09:54:18;3.33;;;2.65;;
18893;SDS011;9579;49.488;8.226;2024-03-25T09:57:06;3.60;;;2.60;;
18893;SDS011;9579;49.488;8.226;2024-03-25T09:59:52;4.38;;;3.00;;
18893;SDS011;9579;49.488;8.226;2024-03-25T10:02:40;4.65;;;2.83;;
18893;SDS011;9579;49.488;8.226;2024-03-25T10:05:26;3.42;;;2.88;;
18893;SDS011;9579;49.488;8.226;2024-03-25T10:08:13;4.15;;;3.03;;
18893;SDS011;9579;49.488;8.226;2024-03-25T10:11:00;3.63;;;2.50;;
18893;SDS011;9579;49.488;8.226;2024-03-25T10:13:48;4.78;;;3.05;;
18893;SDS011;9579;49.488;8.226;2024-03-25T10:16:34;3.03;;;2.72;;
18893;SDS011;9579;49.488;8.226;2024-03-25T10:19:20;3.75;;;2.38;;
18893;SDS011;9579;49.488;8.226;2024-03-25T10:22:07;2.97;;;2.50;;
18893;SDS011;9579;49.488;8.226;2024-03-25T10:24:54;3.35;;;2.20;;
18893;SDS011;9579;49.488;8.226;2024-03-25T10:27:40;3.83;;;2.50;;
18893;SDS011;9579;49.488;8.226;2024-03-25T10:30:28;2.90;;;2.42;;
18893;SDS011;9579;49.488;8.226;2024-03-25T10:33:14;3.78;;;2.80;;
18893;SDS011;9579;49.488;8.226;2024-03-25T10:36:01;5.63;;;2.90;;
18893;SDS011;9579;49.488;8.226;2024-03-25T10:38:49;3.03;;;2.40;;
18893;SDS011;9579;49.488;8.226;2024-03-25T10:41:39;4.18;;;3.35;;
18893;SDS011;9579;49.488;8.226;2024-03-25T10:44:26;2.83;;;2.53;;
18893;SDS011;9579;49.488;8.226;2024-03-25T10:47:17;3.92;;;2.55;;
18893;SDS011;9579;49.488;8.226;2024-03-25T10:50:09;5.32;;;3.08;;
18893;SDS011;9579;49.488;8.226;2024-03-25T10:53:01;4.50;;;2.63;;
18893;SDS011;9579;49.488;8.226;2024-03-25T10:55:50;4.10;;;2.70;;
18893;SDS011;9579;49.488;8.226;2024-03-25T10:58:38;3.53;;;2.35;;
18893;SDS011;9579;49.488;8.226;2024-03-25T11:01:26;3.50;;;2.45;;
18893;SDS011;9579;49.488;8.226;2024-03-25T11:04:14;3.80;;;2.38;;
18893;SDS011;9579;49.488;8.226;2024-03-25T11:07:08;4.07;;;3.22;;
18893;SDS011;9579;49.488;8.226;2024-03-25T11:10:01;45.08;;;35.20;;
18893;SDS011;9579;49.488;8.226;2024-03-25T11:12:50;55.50;;;43.90;;
18893;SDS011;9579;49.488;8.226;2024-03-25T11:15:37;17.67;;;10.82;;
18893;SDS011;9579;49.488;8.226;2024-03-25T11:18:24;7.65;;;5.70;;
18893;SDS011;9579;49.488;8.226;2024-03-25T11:21:12;4.15;;;3.33;;
18893;SDS011;9579;49.488;8.226;2024-03-25T11:24:05;6.57;;;4.20;;
18893;SDS011;9579;49.488;8.226;2024-03-25T11:26:53;12.93;;;9.18;;
18893;SDS011;9579;49.488;8.226;2024-03-25T11:29:39;30.15;;;20.73;;
18893;SDS011;9579;49.488;8.226;2024-03-25T11:32:26;7.97;;;5.50;;
18893;SDS011;9579;49.488;8.226;2024-03-25T11:35:13;5.28;;;3.20;;
18893;SDS011;9579;49.488;8.226;2024-03-25T11:38:00;4.75;;;3.20;;
18893;SDS011;9579;49.488;8.226;2024-03-25T11:40:47;4.63;;;3.17;;
18893;SDS011;9579;49.488;8.226;2024-03-25T11:43:33;4.38;;;3.13;;
18893;SDS011;9579;49.488;8.226;2024-03-25T11:46:19;6.22;;;4.60;;
18893;SDS011;9579;49.488;8.226;2024-03-25T11:49:12;2.83;;;2.60;;
18893;SDS011;9579;49.488;8.226;2024-03-25T11:51:59;3.58;;;3.17;;
18893;SDS011;9579;49.488;8.226;2024-03-25T11:54:54;5.90;;;3.40;;
18893;SDS011;9579;49.488;8.226;2024-03-25T11:57:41;3.50;;;3.15;;
18893;SDS011;9579;49.488;8.226;2024-03-25T12:00:27;4.10;;;3.03;;
18893;SDS011;9579;49.488;8.226;2024-03-25T12:03:13;4.28;;;2.50;;
18893;SDS011;9579;49.488;8.226;2024-03-25T12:06:00;3.65;;;2.50;;
18893;SDS011;9579;49.488;8.226;2024-03-25T12:08:47;3.20;;;2.45;;
18893;SDS011;9579;49.488;8.226;2024-03-25T12:11:49;3.30;;;2.60;;
18893;SDS011;9579;49.488;8.226;2024-03-25T12:14:36;4.32;;;2.90;;
18893;SDS011;9579;49.488;8.226;2024-03-25T12:17:22;2.88;;;2.40;;
18893;SDS011;9579;49.488;8.226;2024-03-25T12:20:09;3.97;;;3.20;;
18893;SDS011;9579;49.488;8.226;2024-03-25T12:22:55;4.03;;;2.70;;
18893;SDS011;9579;49.488;8.226;2024-03-25T12:25:47;3.97;;;2.80;;
18893;SDS011;9579;49.488;8.226;2024-03-25T12:28:35;5.22;;;3.20;;
18893;SDS011;9579;49.488;8.226;2024-03-25T12:31:23;3.25;;;2.80;;
18893;SDS011;9579;49.488;8.226;2024-03-25T12:34:09;5.18;;;2.92;;
18893;SDS011;9579;49.488;8.226;2024-03-25T12:37:00;3.28;;;2.53;;
18893;SDS011;9579;49.488;8.226;2024-03-25T12:39:47;3.72;;;2.75;;
18893;SDS011;9579;49.488;8.226;2024-03-25T12:42:33;3.03;;;2.42;;
18893;SDS011;9579;49.488;8.226;2024-03-25T12:45:21;3.55;;;2.50;;
18893;SDS011;9579;49.488;8.226;2024-03-25T12:48:07;3.97;;;2.45;;
18893;SDS011;9579;49.488;8.226;2024-03-25T12:50:53;3.47;;;2.65;;
18893;SDS011;9579;49.488;8.226;2024-03-25T12:53:40;2.78;;;2.47;;
18893;SDS011;9579;49.488;8.226;2024-03-25T12:56:26;3.22;;;2.33;;
18893;SDS011;9579;49.488;8.226;2024-03-25T12:59:12;3.10;;;2.53;;
18893;SDS011;9579;49.488;8.226;2024-03-25T13:02:00;3.28;;;2.45;;
18893;SDS011;9579;49.488;8.226;2024-03-25T13:04:46;3.42;;;2.70;;
18893;SDS011;9579;49.488;8.226;2024-03-25T13:07:32;4.00;;;3.03;;
18893;SDS011;9579;49.488;8.226;2024-03-25T13:10:18;3.42;;;2.80;;
18893;SDS011;9579;49.488;8.226;2024-03-25T13:13:05;4.45;;;2.88;;
18893;SDS011;9579;49.488;8.226;2024-03-25T13:15:51;3.30;;;2.63;;
18893;SDS011;9579;49.488;8.226;2024-03-25T13:18:39;3.65;;;2.75;;
18893;SDS011;9579;49.488;8.226;2024-03-25T13:21:25;3.28;;;2.85;;
18893;SDS011;9579;49.488;8.226;2024-03-25T13:24:11;3.33;;;2.55;;
18893;SDS011;9579;49.488;8.226;2024-03-25T13:26:57;2.80;;;2.50;;
18893;SDS011;9579;49.488;8.226;2024-03-25T13:29:44;3.00;;;2.40;;
18893;SDS011;9579;49.488;8.226;2024-03-25T13:32:30;3.97;;;2.40;;
18893;SDS011;9579;49.488;8.226;2024-03-25T13:35:17;3.75;;;2.53;;
18893;SDS011;9579;49.488;8.226;2024-03-25T13:38:03;3.10;;;2.38;;
18893;SDS011;9579;49.488;8.226;2024-03-25T13:40:50;3.00;;;2.42;;
18893;SDS011;9579;49.488;8.226;2024-03-25T13:43:39;2.70;;;2.00;;
18893;SDS011;9579;49.488;8.226;2024-03-25T13:46:28;3.40;;;2.40;;
18893;SDS011;9579;49.488;8.226;2024-03-25T13:49:14;3.47;;;2.28;;
18893;SDS011;9579;49.488;8.226;2024-03-25T13:52:02;2.65;;;1.95;;
18893;SDS011;9579;49.488;8.226;2024-03-25T13:54:49;3.17;;;2.28;;
18893;SDS011;9579;49.488;8.226;2024-03-25T13:57:35;3.08;;;2.00;;
18893;SDS011;9579;49.488;8.226;2024-03-25T14:00:21;3.08;;;1.90;;
18893;SDS011;9579;49.488;8.226;2024-03-25T14:03:07;2.10;;;1.90;;
18893;SDS011;9579;49.488;8.226;2024-03-25T14:05:53;2.63;;;2.35;;
18893;SDS011;9579;49.488;8.226;2024-03-25T14:08:41;2.80;;;2.33;;
18893;SDS011;9579;49.488;8.226;2024-03-25T14:11:27;2.85;;;1.85;;
18893;SDS011;9579;49.488;8.226;2024-03-25T14:14:13;2.53;;;2.15;;
18893;SDS011;9579;49.488;8.226;2024-03-25T14:16:59;3.65;;;2.10;;
18893;SDS011;9579;49.488;8.226;2024-03-25T14:19:46;2.33;;;1.95;;
18893;SDS011;9579;49.488;8.226;2024-03-25T14:22:32;3.42;;;2.13;;
18893;SDS011;9579;49.488;8.226;2024-03-25T14:25:20;2.72;;;2.03;;
18893;SDS011;9579;49.488;8.226;2024-03-25T14:28:06;3.08;;;2.22;;
18893;SDS011;9579;49.488;8.226;2024-03-25T14:30:52;3.05;;;2.20;;
18893;SDS011;9579;49.488;8.226;2024-03-25T14:33:38;3.13;;;2.10;;
18893;SDS011;9579;49.488;8.226;2024-03-25T14:36:24;2.60;;;1.88;;
18893;SDS011;9579;49.488;8.226;2024-03-25T14:39:10;2.95;;;1.88;;
18893;SDS011;9579;49.488;8.226;2024-03-25T14:41:58;2.72;;;2.03;;
18893;SDS011;9579;49.488;8.226;2024-03-25T14:44:44;1.77;;;1.50;;
18893;SDS011;9579;49.488;8.226;2024-03-25T14:47:30;2.10;;;1.90;;
18893;SDS011;9579;49.488;8.226;2024-03-25T14:50:16;3.67;;;2.05;;
18893;SDS011;9579;49.488;8.226;2024-03-25T14:53:02;2.80;;;1.95;;
18893;SDS011;9579;49.488;8.226;2024-03-25T14:55:49;2.13;;;1.60;;
18893;SDS011;9579;49.488;8.226;2024-03-25T14:58:36;2.40;;;2.00;;
18893;SDS011;9579;49.488;8.226;2024-03-25T15:01:22;4.60;;;2.40;;
18893;SDS011;9579;49.488;8.226;2024-03-25T15:04:09;2.33;;;1.77;;
18893;SDS011;9579;49.488;8.226;2024-03-25T15:06:55;4.05;;;2.25;;
18893;SDS011;9579;49.488;8.226;2024-03-25T15:09:41;2.95;;;2.08;;
18893;SDS011;9579;49.488;8.226;2024-03-25T15:12:27;3.20;;;2.13;;
18893;SDS011;9579;49.488;8.226;2024-03-25T15:15:14;3.78;;;2.03;;
18893;SDS011;9579;49.488;8.226;2024-03-25T15:18:01;3.95;;;1.95;;
18893;SDS011;9579;49.488;8.226;2024-03-25T15:20:47;2.78;;;2.05;;
18893;SDS011;9579;49.488;8.226;2024-03-25T15:23:33;2.55;;;2.10;;
18893;SDS011;9579;49.488;8.226;2024-03-25T15:26:19;2.97;;;2.00;;
18893;SDS011;9579;49.488;8.226;2024-03-25T15:29:05;3.05;;;2.20;;
18893;SDS011;9579;49.488;8.226;2024-03-25T15:31:53;3.70;;;2.20;;
18893;SDS011;9579;49.488;8.226;2024-03-25T15:34:39;2.65;;;2.05;;
18893;SDS011;9579;49.488;8.226;2024-03-25T15:37:25;2.42;;;2.10;;
18893;SDS011;9579;49.488;8.226;2024-03-25T15:40:11;2.65;;;1.95;;
18893;SDS011;9579;49.488;8.226;2024-03-25T15:42:57;2.45;;;1.90;;
18893;SDS011;9579;49.488;8.226;2024-03-25T15:45:53;2.13;;;1.70;;
18893;SDS011;9579;49.488;8.226;2024-03-25T15:48:40;2.85;;;2.22;;
18893;SDS011;9579;49.488;8.226;2024-03-25T15:51:27;2.88;;;1.60;;
18893;SDS011;9579;49.488;8.226;2024-03-25T15:54:13;2.58;;;1.60;;
18893;SDS011;9579;49.488;8.226;2024-03-25T15:56:59;2.75;;;1.80;;
18893;SDS011;9579;49.488;8.226;2024-03-25T15:59:45;2.40;;;1.83;;
18893;SDS011;9579;49.488;8.226;2024-03-25T16:02:31;3.13;;;1.80;;
18893;SDS011;9579;49.488;8.226;2024-03-25T16:05:18;2.90;;;1.80;;
18893;SDS011;9579;49.488;8.226;2024-03-25T16:08:05;2.40;;;1.65;;
18893;SDS011;9579;49.488;8.226;2024-03-25T16:10:51;3.50;;;2.13;;
18893;SDS011;9579;49.488;8.226;2024-03-25T16:13:37;2.67;;;1.75;;
18893;SDS011;9579;49.488;8.226;2024-03-25T16:16:23;2.42;;;1.73;;
18893;SDS011;9579;49.488;8.226;2024-03-25T16:19:10;2.40;;;1.85;;
18893;SDS011;9579;49.488;8.226;2024-03-25T16:21:57;2.42;;;1.65;;
18893;SDS011;9579;49.488;8.226;2024-03-25T16:24:44;2.33;;;1.67;;
18893;SDS011;9579;49.488;8.226;2024-03-25T16:27:30;2.47;;;1.73;;
18893;SDS011;9579;49.488;8.226;2024-03-25T16:30:16;2.22;;;1.73;;
18893;SDS011;9579;49.488;8.226;2024-03-25T16:33:03;3.20;;;1.90;;
18893;SDS011;9579;49.488;8.226;2024-03-25T16:35:49;2.90;;;1.98;;
18893;SDS011;9579;49.488;8.226;2024-03-25T16:38:37;3.20;;;2.00;;
18893;SDS011;9579;49.488;8.226;2024-03-25T16:41:23;2.33;;;1.90;;
18893;SDS011;9579;49.488;8.226;2024-03-25T16:44:09;2.75;;;1.70;;
18893;SDS011;9579;49.488;8.226;2024-03-25T16:46:55;1.85;;;1.75;;
18893;SDS011;9579;49.488;8.226;2024-03-25T16:49:41;2.00;;;1.75;;
18893;SDS011;9579;49.488;8.226;2024-03-25T16:52:27;4.03;;;1.90;;
18893;SDS011;9579;49.488;8.226;2024-03-25T16:55:15;4.30;;;2.03;;
18893;SDS011;9579;49.488;8.226;2024-03-25T16:58:01;2.80;;;2.08;;
18893;SDS011;9579;49.488;8.226;2024-03-25T17:00:48;2.20;;;1.70;;
18893;SDS011;9579;49.488;8.226;2024-03-25T17:03:34;2.17;;;1.70;;
18893;SDS011;9579;49.488;8.226;2024-03-25T17:06:20;2.72;;;1.92;;